VEAT/IXA METAR and TAF weather

Enter ICAO airport designator
Station Type Date Time Source
VEAT METAR 2021/05/10 12:00 UTC NOAA

VEAT 101200Z 21003KT 6000 FEW020 32/24 Q1005 BECMG 5000 HZ


Station Type Date Time Source
VEAT Decoded METAR 2021/05/10 12:00 UTC NOAA

Agartala, India (VEAT) 23-53N 091-15E 16M
May 10, 2021 - 08:00 AM EDT / 2021.05.10 1200 UTC
Wind: from the SSW (210 degrees) at 3 MPH (3 KT):0
Visibility: 3 mile(s):0
Sky conditions: mostly clear
Temperature: 89 F (32 C)
Heat index: 98.4 F (36.9 C):1
Dew Point: 75 F (24 C)
Relative Humidity: 62%
Pressure (altimeter): 29.68 in. Hg (1005 hPa)
ob: VEAT 101200Z 21003KT 6000 FEW020 32/24 Q1005 BECMG 5000 HZ
cycle: 12

Station Type Date Time Source
VEAT TAF 2013/07/19 12:00 UTC NOAA

TAF VEAT 190900Z 1912/1921 16008KT 5000 HZ SCT018 FEW030CB BKN100
TEMPO 1912/1921 3000 -TSRA SCT015 FEW025CB OVC090

Example: see airport list